AFL339 UOOO-ULLI
Flight info
| Callsign | AFL339 |
|---|---|
| Flight time | N/A |
| Altitude | 38000 |
| Route | BI4B BI M130 ULKAM M131 NRM L168 RIGNI M58 ARGIP T821 ROGID M856 GIKUR T458 BEPOL BEPOL1B |
| Aircraft | A20N/M-SDE2E3FGHIRWXY/LB1 |
Departure
| Time | 2026-05-06 14:24 |
|---|---|
| Airport | Alykel International Airport (UOOO) |
Arrival
| Time | N/A |
|---|---|
| Airport | Pulkovo Airport (ULLI) |
| Time | Latitude | Longitude | Altitude | Speed | Heading |
|---|---|---|---|---|---|
| 2026-05-06 14:06 | 69.32319 | 87.34108 | 588 ft | 0 kts | 348° |
| 2026-05-06 14:16 | 69.32312 | 87.34112 | 589 ft | 2 kts | 348° |
| 2026-05-06 14:16 | 69.32297 | 87.34121 | 589 ft | 2 kts | 348° |
| 2026-05-06 14:16 | 69.32282 | 87.34129 | 588 ft | 2 kts | 348° |
| 2026-05-06 14:16 | 69.32268 | 87.34137 | 588 ft | 1 kts | 348° |
| 2026-05-06 14:17 | 69.32259 | 87.34142 | 588 ft | 1 kts | 338° |
| 2026-05-06 14:17 | 69.32249 | 87.34164 | 589 ft | 2 kts | 306° |
| 2026-05-06 14:17 | 69.32242 | 87.34200 | 588 ft | 2 kts | 279° |
| 2026-05-06 14:17 | 69.32243 | 87.34239 | 588 ft | 2 kts | 252° |
| 2026-05-06 14:18 | 69.32250 | 87.34274 | 588 ft | 2 kts | 224° |
| 2026-05-06 14:18 | 69.32255 | 87.34287 | 588 ft | 1 kts | 207° |
| 2026-05-06 14:18 | 69.32259 | 87.34294 | 588 ft | 0 kts | 211° |
| 2026-05-06 14:18 | 69.32258 | 87.34292 | 588 ft | 0 kts | 211° |
| 2026-05-06 14:19 | 69.32251 | 87.34280 | 588 ft | 1 kts | 211° |
| 2026-05-06 14:19 | 69.32237 | 87.34255 | 588 ft | 2 kts | 210° |
| 2026-05-06 14:19 | 69.32215 | 87.34219 | 588 ft | 4 kts | 210° |
| 2026-05-06 14:19 | 69.32187 | 87.34171 | 588 ft | 5 kts | 210° |
| 2026-05-06 14:20 | 69.32172 | 87.34148 | 588 ft | 0 kts | 210° |
| 2026-05-06 14:21 | 69.32170 | 87.34145 | 588 ft | 0 kts | 210° |
| 2026-05-06 14:21 | 69.32160 | 87.34128 | 588 ft | 2 kts | 211° |
| 2026-05-06 14:21 | 69.32142 | 87.34092 | 588 ft | 4 kts | 214° |
| 2026-05-06 14:21 | 69.32111 | 87.34051 | 588 ft | 5 kts | 194° |
| 2026-05-06 14:22 | 69.32071 | 87.34088 | 588 ft | 7 kts | 135° |
| 2026-05-06 14:22 | 69.32039 | 87.34216 | 588 ft | 8 kts | 123° |
| 2026-05-06 14:22 | 69.32002 | 87.34370 | 588 ft | 10 kts | 123° |
| 2026-05-06 14:22 | 69.31961 | 87.34553 | 588 ft | 11 kts | 123° |
| 2026-05-06 14:23 | 69.31892 | 87.34616 | 588 ft | 11 kts | 204° |
| 2026-05-06 14:23 | 69.31798 | 87.34447 | 588 ft | 36 kts | 211° |
| 2026-05-06 14:23 | 69.31381 | 87.33697 | 588 ft | 103 kts | 212° |
| 2026-05-06 14:23 | 69.30615 | 87.32321 | 590 ft | 156 kts | 212° |
| 2026-05-06 14:24 | 69.29623 | 87.30473 | 911 ft | 175 kts | 209° |
| 2026-05-06 14:24 | 69.28645 | 87.28750 | 1754 ft | 166 kts | 206° |
| 2026-05-06 14:24 | 69.27721 | 87.27144 | 2655 ft | 155 kts | 208° |
| 2026-05-06 14:24 | 69.26775 | 87.25500 | 3153 ft | 165 kts | 209° |
| 2026-05-06 14:25 | 69.25756 | 87.23726 | 3545 ft | 181 kts | 210° |
| 2026-05-06 14:25 | 69.24615 | 87.21676 | 3885 ft | 203 kts | 212° |
| 2026-05-06 14:25 | 69.23526 | 87.19009 | 4414 ft | 218 kts | 236° |
| 2026-05-06 14:25 | 69.23077 | 87.14920 | 5181 ft | 229 kts | 264° |
| 2026-05-06 14:26 | 69.23400 | 87.10470 | 5975 ft | 242 kts | 289° |
| 2026-05-06 14:26 | 69.24242 | 87.06331 | 6840 ft | 243 kts | 294° |
| 2026-05-06 14:26 | 69.25085 | 87.02099 | 7401 ft | 256 kts | 294° |
| 2026-05-06 14:26 | 69.25980 | 86.97562 | 8000 ft | 268 kts | 295° |
| 2026-05-06 14:27 | 69.26882 | 86.92968 | 8910 ft | 268 kts | 296° |
| 2026-05-06 14:27 | 69.27792 | 86.88444 | 9836 ft | 267 kts | 297° |
| 2026-05-06 14:27 | 69.28704 | 86.83845 | 10408 ft | 278 kts | 295° |
| 2026-05-06 14:27 | 69.29676 | 86.78913 | 10880 ft | 293 kts | 296° |
| 2026-05-06 14:28 | 69.30669 | 86.73847 | 11630 ft | 297 kts | 297° |
| 2026-05-06 14:28 | 69.31670 | 86.68823 | 12459 ft | 300 kts | 296° |
| 2026-05-06 14:28 | 69.32693 | 86.63603 | 13241 ft | 303 kts | 297° |
| 2026-05-06 14:28 | 69.33701 | 86.58442 | 13964 ft | 306 kts | 296° |
| 2026-05-06 14:29 | 69.34724 | 86.53156 | 14714 ft | 308 kts | 296° |
| 2026-05-06 14:29 | 69.35746 | 86.47879 | 15454 ft | 309 kts | 297° |
| 2026-05-06 14:29 | 69.36792 | 86.42529 | 16155 ft | 312 kts | 297° |
| 2026-05-06 14:29 | 69.37867 | 86.37193 | 16845 ft | 314 kts | 297° |
| 2026-05-06 14:30 | 69.38953 | 86.31832 | 17508 ft | 317 kts | 296° |
| 2026-05-06 14:30 | 69.40028 | 86.26392 | 18180 ft | 318 kts | 294° |
| 2026-05-06 14:30 | 69.40931 | 86.20695 | 18853 ft | 318 kts | 289° |
| 2026-05-06 14:30 | 69.41625 | 86.14767 | 19463 ft | 319 kts | 283° |
| 2026-05-06 14:31 | 69.42160 | 86.08878 | 20040 ft | 321 kts | 282° |
| 2026-05-06 14:31 | 69.42695 | 86.02769 | 20711 ft | 321 kts | 282° |
| 2026-05-06 14:31 | 69.43212 | 85.96787 | 21309 ft | 321 kts | 282° |
| 2026-05-06 14:31 | 69.43743 | 85.90602 | 21856 ft | 323 kts | 282° |
| 2026-05-06 14:32 | 69.44271 | 85.84431 | 22413 ft | 324 kts | 282° |
| 2026-05-06 14:32 | 69.44797 | 85.78251 | 22997 ft | 324 kts | 282° |
| 2026-05-06 14:32 | 69.45329 | 85.72002 | 23550 ft | 325 kts | 282° |
| 2026-05-06 14:32 | 69.45853 | 85.65808 | 24068 ft | 326 kts | 282° |
| 2026-05-06 14:33 | 69.46378 | 85.59540 | 24529 ft | 327 kts | 282° |
| 2026-05-06 14:33 | 69.46908 | 85.53206 | 24994 ft | 329 kts | 283° |
| 2026-05-06 14:33 | 69.47430 | 85.46938 | 25406 ft | 330 kts | 283° |
| 2026-05-06 14:33 | 69.47963 | 85.40492 | 25826 ft | 332 kts | 283° |
| 2026-05-06 14:34 | 69.48493 | 85.34055 | 26253 ft | 334 kts | 282° |
| 2026-05-06 14:34 | 69.49023 | 85.27580 | 26672 ft | 335 kts | 282° |
| 2026-05-06 14:34 | 69.49547 | 85.21169 | 27076 ft | 337 kts | 282° |
| 2026-05-06 14:34 | 69.50078 | 85.14640 | 27470 ft | 339 kts | 282° |
| 2026-05-06 14:35 | 69.50581 | 85.08419 | 27816 ft | 341 kts | 282° |
| 2026-05-06 14:35 | 69.51102 | 85.01937 | 28181 ft | 342 kts | 282° |
| 2026-05-06 14:35 | 69.51636 | 84.95279 | 28513 ft | 344 kts | 282° |
| 2026-05-06 14:35 | 69.52171 | 84.88563 | 28859 ft | 345 kts | 282° |
| 2026-05-06 14:36 | 69.52702 | 84.81893 | 29152 ft | 347 kts | 282° |
| 2026-05-06 14:36 | 69.53239 | 84.75073 | 29457 ft | 349 kts | 282° |
| 2026-05-06 14:36 | 69.53770 | 84.68336 | 29760 ft | 350 kts | 282° |
| 2026-05-06 14:36 | 69.54297 | 84.61540 | 30044 ft | 351 kts | 282° |
| 2026-05-06 14:37 | 69.54817 | 84.54758 | 30286 ft | 353 kts | 282° |
| 2026-05-06 14:37 | 69.55347 | 84.47849 | 30555 ft | 355 kts | 282° |
| 2026-05-06 14:37 | 69.55875 | 84.40943 | 30788 ft | 356 kts | 282° |
| 2026-05-06 14:37 | 69.56399 | 84.34027 | 30998 ft | 359 kts | 281° |
| 2026-05-06 14:38 | 69.56924 | 84.27044 | 31193 ft | 361 kts | 281° |
| 2026-05-06 14:38 | 69.57450 | 84.20117 | 31435 ft | 362 kts | 281° |
| 2026-05-06 14:38 | 69.57983 | 84.13032 | 31653 ft | 363 kts | 281° |
| 2026-05-06 14:38 | 69.58491 | 84.06102 | 31863 ft | 364 kts | 281° |
| 2026-05-06 14:39 | 69.59192 | 83.96687 | 32172 ft | 365 kts | 281° |
| 2026-05-06 14:39 | 69.59536 | 83.92005 | 32313 ft | 366 kts | 281° |
| 2026-05-06 14:39 | 69.60064 | 83.84732 | 32508 ft | 368 kts | 281° |
| 2026-05-06 14:39 | 69.60590 | 83.77439 | 32687 ft | 370 kts | 281° |
| 2026-05-06 14:40 | 69.61108 | 83.70261 | 32882 ft | 371 kts | 281° |
| 2026-05-06 14:40 | 69.61628 | 83.62968 | 33063 ft | 372 kts | 281° |
| 2026-05-06 14:40 | 69.62143 | 83.55748 | 33252 ft | 372 kts | 281° |
| 2026-05-06 14:40 | 69.62662 | 83.48423 | 33417 ft | 374 kts | 281° |
| 2026-05-06 14:41 | 69.63178 | 83.41077 | 33575 ft | 375 kts | 281° |
| 2026-05-06 14:41 | 69.63693 | 83.33692 | 33747 ft | 376 kts | 280° |
| 2026-05-06 14:41 | 69.64201 | 83.26366 | 33966 ft | 376 kts | 280° |
| 2026-05-06 14:41 | 69.64706 | 83.19076 | 34151 ft | 377 kts | 280° |
| 2026-05-06 14:42 | 69.65214 | 83.11681 | 34356 ft | 377 kts | 280° |
| 2026-05-06 14:42 | 69.65675 | 83.04915 | 34493 ft | 377 kts | 280° |
| 2026-05-06 14:42 | 69.66172 | 82.97547 | 34654 ft | 378 kts | 280° |
| 2026-05-06 14:42 | 69.66669 | 82.90163 | 34820 ft | 379 kts | 280° |
| 2026-05-06 14:43 | 69.67172 | 82.82645 | 34995 ft | 379 kts | 280° |
| 2026-05-06 14:43 | 69.67667 | 82.75198 | 35159 ft | 379 kts | 280° |
| 2026-05-06 14:43 | 69.68153 | 82.67796 | 35312 ft | 380 kts | 280° |
| 2026-05-06 14:43 | 69.68645 | 82.60283 | 35457 ft | 380 kts | 280° |
| 2026-05-06 14:44 | 69.69130 | 82.52827 | 35575 ft | 381 kts | 280° |
| 2026-05-06 14:44 | 69.69611 | 82.45369 | 35703 ft | 382 kts | 280° |
| 2026-05-06 14:44 | 69.70096 | 82.37807 | 35852 ft | 382 kts | 280° |
| 2026-05-06 14:45 | 69.71046 | 82.22797 | 36068 ft | 384 kts | 279° |
| 2026-05-06 14:45 | 69.71520 | 82.15240 | 36186 ft | 385 kts | 279° |
| 2026-05-06 14:45 | 69.71972 | 82.07983 | 36279 ft | 386 kts | 279° |
| 2026-05-06 14:45 | 69.72415 | 82.00813 | 36401 ft | 386 kts | 279° |
| 2026-05-06 14:46 | 69.72881 | 81.93202 | 36529 ft | 386 kts | 279° |
| 2026-05-06 14:46 | 69.73343 | 81.85643 | 36641 ft | 386 kts | 279° |
| 2026-05-06 14:46 | 69.73813 | 81.77882 | 36741 ft | 387 kts | 279° |
| 2026-05-06 14:47 | 69.74729 | 81.62549 | 36908 ft | 389 kts | 279° |
| 2026-05-06 14:47 | 69.75635 | 81.47163 | 37085 ft | 390 kts | 279° |
| 2026-05-06 14:48 | 69.76532 | 81.31660 | 37220 ft | 392 kts | 278° |
| 2026-05-06 14:48 | 69.77412 | 81.16196 | 37335 ft | 394 kts | 278° |
| 2026-05-06 14:49 | 69.78264 | 81.01002 | 37411 ft | 396 kts | 278° |
| 2026-05-06 14:49 | 69.79117 | 80.85556 | 37415 ft | 397 kts | 278° |
| 2026-05-06 14:50 | 69.79973 | 80.69762 | 37402 ft | 396 kts | 278° |
| 2026-05-06 14:50 | 69.80810 | 80.54073 | 37400 ft | 397 kts | 278° |
| 2026-05-06 14:51 | 69.81633 | 80.38376 | 37389 ft | 396 kts | 278° |
| 2026-05-06 14:51 | 69.82443 | 80.22635 | 37390 ft | 396 kts | 277° |
| 2026-05-06 14:52 | 69.83209 | 80.07494 | 37395 ft | 395 kts | 277° |
| 2026-05-06 14:52 | 69.83989 | 79.91785 | 37395 ft | 396 kts | 277° |
| 2026-05-06 14:53 | 69.84755 | 79.76084 | 37385 ft | 396 kts | 277° |
| 2026-05-06 14:53 | 69.85510 | 79.60265 | 37383 ft | 396 kts | 277° |
| 2026-05-06 14:54 | 69.86245 | 79.44548 | 37383 ft | 397 kts | 277° |
| 2026-05-06 14:54 | 69.86969 | 79.28680 | 37381 ft | 397 kts | 276° |
| 2026-05-06 14:55 | 69.87639 | 79.13563 | 37366 ft | 397 kts | 276° |
| 2026-05-06 14:55 | 69.88316 | 78.97745 | 37391 ft | 397 kts | 276° |
| 2026-05-06 14:56 | 69.88982 | 78.81901 | 37360 ft | 397 kts | 276° |
| 2026-05-06 14:56 | 69.89636 | 78.66009 | 37372 ft | 398 kts | 276° |
| 2026-05-06 14:57 | 69.90276 | 78.50114 | 37359 ft | 398 kts | 275° |
| 2026-05-06 14:57 | 69.90900 | 78.34203 | 37361 ft | 398 kts | 274° |
| 2026-05-06 14:58 | 69.91509 | 78.18287 | 37359 ft | 397 kts | 274° |
| 2026-05-06 14:58 | 69.92065 | 78.03421 | 37353 ft | 397 kts | 274° |
| 2026-05-06 14:59 | 69.92638 | 77.87705 | 37377 ft | 397 kts | 274° |
| 2026-05-06 14:59 | 69.93210 | 77.71664 | 37376 ft | 397 kts | 274° |
| 2026-05-06 15:00 | 69.93771 | 77.55529 | 37355 ft | 398 kts | 274° |
| 2026-05-06 15:00 | 69.94312 | 77.39504 | 37342 ft | 399 kts | 274° |
| 2026-05-06 15:01 | 69.94839 | 77.23405 | 37342 ft | 399 kts | 273° |
| 2026-05-06 15:01 | 69.95337 | 77.07858 | 37351 ft | 400 kts | 273° |
| 2026-05-06 15:02 | 69.95831 | 76.91908 | 37331 ft | 401 kts | 273° |
| 2026-05-06 15:02 | 69.96330 | 76.75311 | 37344 ft | 403 kts | 273° |
| 2026-05-06 15:03 | 69.96799 | 76.59293 | 37335 ft | 403 kts | 273° |
| 2026-05-06 15:03 | 69.97263 | 76.42899 | 37334 ft | 403 kts | 273° |
| 2026-05-06 15:04 | 69.97707 | 76.26565 | 37324 ft | 403 kts | 272° |
| 2026-05-06 15:04 | 69.98130 | 76.10542 | 37313 ft | 403 kts | 272° |
| 2026-05-06 15:05 | 69.98547 | 75.94175 | 37340 ft | 403 kts | 272° |
| 2026-05-06 15:05 | 69.98949 | 75.77772 | 37340 ft | 404 kts | 272° |
| 2026-05-06 15:06 | 69.99338 | 75.61370 | 37328 ft | 404 kts | 272° |
| 2026-05-06 15:06 | 69.99709 | 75.44937 | 37343 ft | 404 kts | 272° |
| 2026-05-06 15:07 | 70.00061 | 75.28587 | 37343 ft | 404 kts | 271° |
| 2026-05-06 15:07 | 70.00401 | 75.12121 | 37331 ft | 404 kts | 271° |
| 2026-05-06 15:08 | 70.00722 | 74.95657 | 37343 ft | 405 kts | 271° |
| 2026-05-06 15:08 | 70.01028 | 74.79157 | 37343 ft | 405 kts | 271° |
| 2026-05-06 15:09 | 70.01318 | 74.62713 | 37337 ft | 406 kts | 271° |
| 2026-05-06 15:09 | 70.01597 | 74.45988 | 37334 ft | 407 kts | 272° |
| 2026-05-06 15:10 | 70.01857 | 74.29502 | 37338 ft | 408 kts | 271° |
| 2026-05-06 15:10 | 70.02093 | 74.13414 | 37353 ft | 408 kts | 271° |
| 2026-05-06 15:11 | 70.02318 | 73.97036 | 37347 ft | 407 kts | 271° |
| 2026-05-06 15:11 | 70.02531 | 73.80512 | 37353 ft | 407 kts | 271° |
| 2026-05-06 15:12 | 70.02732 | 73.63905 | 37357 ft | 407 kts | 271° |
| 2026-05-06 15:12 | 70.02917 | 73.47347 | 37361 ft | 408 kts | 271° |
| 2026-05-06 15:13 | 70.03084 | 73.30882 | 37365 ft | 408 kts | 270° |
| 2026-05-06 15:13 | 70.03238 | 73.14278 | 37369 ft | 408 kts | 270° |
| 2026-05-06 15:14 | 70.03369 | 72.98589 | 37371 ft | 408 kts | 270° |
| 2026-05-06 15:14 | 70.03487 | 72.82364 | 37374 ft | 408 kts | 270° |
| 2026-05-06 15:15 | 70.03617 | 72.65836 | 37366 ft | 409 kts | 270° |
| 2026-05-06 15:15 | 70.03744 | 72.49192 | 37365 ft | 410 kts | 270° |
| 2026-05-06 15:16 | 70.03854 | 72.32507 | 37369 ft | 410 kts | 270° |
| 2026-05-06 15:16 | 70.03947 | 72.15873 | 37373 ft | 410 kts | 269° |
| 2026-05-06 15:17 | 70.04022 | 72.00030 | 37372 ft | 410 kts | 269° |
| 2026-05-06 15:17 | 70.04083 | 71.83501 | 37375 ft | 410 kts | 269° |
| 2026-05-06 15:18 | 70.04131 | 71.66756 | 37383 ft | 409 kts | 269° |
| 2026-05-06 15:18 | 70.04160 | 71.50167 | 37390 ft | 408 kts | 269° |
| 2026-05-06 15:19 | 70.04176 | 71.33597 | 37387 ft | 408 kts | 269° |
| 2026-05-06 15:19 | 70.04176 | 71.16998 | 37390 ft | 408 kts | 268° |
| 2026-05-06 15:20 | 70.04162 | 71.01427 | 37388 ft | 408 kts | 269° |
| 2026-05-06 15:20 | 70.04134 | 70.85239 | 37388 ft | 408 kts | 269° |
| 2026-05-06 15:21 | 70.04086 | 70.68707 | 37380 ft | 408 kts | 269° |
| 2026-05-06 15:21 | 70.04018 | 70.52200 | 37376 ft | 408 kts | 268° |
| 2026-05-06 15:22 | 70.03897 | 70.35664 | 37383 ft | 407 kts | 268° |
| 2026-05-06 15:22 | 70.03759 | 70.19109 | 37384 ft | 407 kts | 267° |
| 2026-05-06 15:23 | 70.03616 | 70.03340 | 37386 ft | 407 kts | 267° |
| 2026-05-06 15:23 | 70.03452 | 69.86788 | 37392 ft | 407 kts | 267° |
| 2026-05-06 15:24 | 70.03271 | 69.70190 | 37408 ft | 407 kts | 267° |
| 2026-05-06 15:24 | 70.03072 | 69.53612 | 37418 ft | 406 kts | 267° |
| 2026-05-06 15:25 | 70.02876 | 69.37203 | 37420 ft | 406 kts | 267° |
| 2026-05-06 15:25 | 70.02682 | 69.20760 | 37430 ft | 406 kts | 266° |
| 2026-05-06 15:26 | 70.02475 | 69.04396 | 37435 ft | 406 kts | 266° |
| 2026-05-06 15:26 | 70.02248 | 68.87804 | 37434 ft | 406 kts | 266° |
| 2026-05-06 15:27 | 70.02005 | 68.71255 | 37435 ft | 407 kts | 266° |
| 2026-05-06 15:27 | 70.01749 | 68.54764 | 37438 ft | 408 kts | 266° |
| 2026-05-06 15:28 | 70.01477 | 68.38239 | 37438 ft | 408 kts | 266° |
| 2026-05-06 15:28 | 70.01190 | 68.21785 | 37442 ft | 407 kts | 265° |
| 2026-05-06 15:29 | 70.00891 | 68.05524 | 37444 ft | 408 kts | 265° |
| 2026-05-06 15:29 | 70.00574 | 67.89047 | 37445 ft | 408 kts | 265° |
| 2026-05-06 15:30 | 70.00243 | 67.72620 | 37444 ft | 409 kts | 265° |
| 2026-05-06 15:30 | 69.99891 | 67.55996 | 37442 ft | 409 kts | 265° |
| 2026-05-06 15:31 | 69.99526 | 67.39554 | 37446 ft | 409 kts | 265° |
| 2026-05-06 15:31 | 69.99146 | 67.23079 | 37445 ft | 409 kts | 265° |
| 2026-05-06 15:32 | 69.98556 | 66.98613 | 37468 ft | 410 kts | 265° |
| 2026-05-06 15:32 | 69.98140 | 66.82095 | 37472 ft | 410 kts | 264° |
| 2026-05-06 15:33 | 69.97706 | 66.65557 | 37476 ft | 410 kts | 264° |
| 2026-05-06 15:33 | 69.97255 | 66.48991 | 37479 ft | 411 kts | 264° |
| 2026-05-06 15:34 | 69.96788 | 66.32458 | 37484 ft | 410 kts | 263° |
| 2026-05-06 15:34 | 69.96304 | 66.15919 | 37494 ft | 410 kts | 263° |
| 2026-05-06 15:35 | 69.95849 | 66.01012 | 37487 ft | 410 kts | 264° |
| 2026-05-06 15:35 | 69.95332 | 65.84547 | 37496 ft | 410 kts | 264° |
| 2026-05-06 15:36 | 69.94801 | 65.68082 | 37498 ft | 411 kts | 264° |
| 2026-05-06 15:36 | 69.94251 | 65.51526 | 37503 ft | 412 kts | 264° |
| 2026-05-06 15:37 | 69.93690 | 65.35078 | 37506 ft | 411 kts | 264° |
| 2026-05-06 15:37 | 69.93109 | 65.18546 | 37508 ft | 411 kts | 263° |
| 2026-05-06 15:38 | 69.92532 | 65.02503 | 37510 ft | 411 kts | 263° |
| 2026-05-06 15:38 | 69.91916 | 64.85907 | 37510 ft | 411 kts | 263° |
| 2026-05-06 15:39 | 69.91292 | 64.69469 | 37514 ft | 411 kts | 263° |
| 2026-05-06 15:39 | 69.90652 | 64.53019 | 37511 ft | 411 kts | 263° |
| 2026-05-06 15:40 | 69.89996 | 64.36587 | 37513 ft | 412 kts | 263° |
| 2026-05-06 15:40 | 69.89319 | 64.19991 | 37513 ft | 412 kts | 262° |
| 2026-05-06 15:41 | 69.88655 | 64.04097 | 37516 ft | 413 kts | 262° |
| 2026-05-06 15:41 | 69.87953 | 63.87657 | 37516 ft | 413 kts | 262° |
| 2026-05-06 15:42 | 69.87235 | 63.71212 | 37519 ft | 413 kts | 262° |
| 2026-05-06 15:42 | 69.86502 | 63.54783 | 37524 ft | 413 kts | 262° |
| 2026-05-06 15:43 | 69.85751 | 63.38289 | 37527 ft | 413 kts | 262° |
| 2026-05-06 15:43 | 69.84987 | 63.21870 | 37535 ft | 413 kts | 261° |
| 2026-05-06 15:44 | 69.84218 | 63.05647 | 37535 ft | 413 kts | 261° |
| 2026-05-06 15:44 | 69.83423 | 62.89259 | 37541 ft | 413 kts | 261° |
| 2026-05-06 15:45 | 69.82615 | 62.72934 | 37542 ft | 412 kts | 261° |
| 2026-05-06 15:45 | 69.81790 | 62.56559 | 37546 ft | 412 kts | 261° |
| 2026-05-06 15:46 | 69.80949 | 62.40174 | 37552 ft | 413 kts | 261° |
| 2026-05-06 15:46 | 69.80094 | 62.23840 | 37554 ft | 412 kts | 261° |
| 2026-05-06 15:47 | 69.79217 | 62.07359 | 37558 ft | 412 kts | 261° |
| 2026-05-06 15:47 | 69.78336 | 61.91162 | 37562 ft | 412 kts | 260° |
| 2026-05-06 15:48 | 69.77342 | 61.74913 | 37561 ft | 412 kts | 257° |
| 2026-05-06 15:48 | 69.75758 | 61.59117 | 37565 ft | 412 kts | 250° |
| 2026-05-06 15:49 | 69.73533 | 61.43839 | 37571 ft | 413 kts | 244° |
| 2026-05-06 15:49 | 69.70723 | 61.29417 | 37562 ft | 414 kts | 239° |